createdAt,value
2017-07-10T00:03:18.681Z,14
2017-07-10T00:13:18.651Z,15
2017-07-10T00:23:18.693Z,15
2017-07-10T00:33:18.676Z,14
2017-07-10T00:43:18.607Z,16
2017-07-10T00:53:18.666Z,17
2017-07-10T01:03:18.626Z,15
2017-07-10T01:13:18.616Z,18
2017-07-10T01:23:18.645Z,17
2017-07-10T01:33:18.643Z,19
2017-07-10T01:43:18.681Z,17
2017-07-10T01:53:18.657Z,16
2017-07-10T02:03:18.577Z,17
2017-07-10T02:13:18.654Z,17
2017-07-10T02:23:18.595Z,15
2017-07-10T02:33:18.670Z,16
2017-07-10T02:43:18.635Z,16
2017-07-10T02:53:18.608Z,15
2017-07-10T03:03:18.630Z,17
2017-07-10T03:13:18.631Z,16
2017-07-10T03:23:18.599Z,16
2017-07-10T03:33:18.662Z,16
2017-07-10T03:43:18.612Z,17
2017-07-10T03:53:18.687Z,17
2017-07-10T04:03:18.638Z,18
2017-07-10T04:13:18.587Z,18
2017-07-10T04:23:18.665Z,20
2017-07-10T04:33:18.594Z,18
2017-07-10T04:43:18.690Z,19
2017-07-10T04:53:18.638Z,20
2017-07-10T05:03:18.600Z,20
2017-07-10T05:13:18.673Z,21
2017-07-10T05:23:18.601Z,21
2017-07-10T05:33:18.694Z,21
2017-07-10T05:43:18.633Z,20
2017-07-10T05:53:18.634Z,21
2017-07-10T06:03:18.664Z,21
2017-07-10T06:13:18.634Z,22
2017-07-10T06:23:18.690Z,23
2017-07-10T06:33:18.637Z,25
2017-07-10T06:43:18.638Z,25
2017-07-10T06:53:18.733Z,24
2017-07-10T07:03:18.779Z,25
2017-07-10T07:13:18.837Z,23
2017-07-10T07:23:18.660Z,25
2017-07-10T07:33:18.656Z,25
2017-07-10T07:43:18.608Z,27
2017-07-10T07:53:18.574Z,26
2017-07-10T08:03:18.590Z,27
2017-07-10T08:13:18.669Z,28
2017-07-10T08:23:18.764Z,29
2017-07-10T08:33:18.608Z,30
2017-07-10T08:43:18.709Z,29
2017-07-10T08:53:18.628Z,28
2017-07-10T09:03:18.580Z,29
2017-07-10T09:13:18.612Z,30
2017-07-10T09:23:18.599Z,31
2017-07-10T09:33:18.611Z,33
2017-07-10T09:43:18.625Z,33
2017-07-10T09:53:18.614Z,32
2017-07-10T10:03:19.138Z,31
2017-07-10T10:13:18.648Z,30
2017-07-10T10:23:18.595Z,32
2017-07-10T10:33:18.624Z,32
2017-07-10T10:43:18.654Z,31
2017-07-10T10:53:18.632Z,31
2017-07-10T11:03:18.596Z,30
2017-07-10T11:13:18.623Z,30
2017-07-10T11:23:18.621Z,30
2017-07-10T11:33:18.624Z,27
2017-07-10T11:43:18.642Z,28
2017-07-10T11:53:18.648Z,29
2017-07-10T12:03:18.636Z,29
2017-07-10T12:13:18.651Z,32
2017-07-10T12:23:18.645Z,29
2017-07-10T12:33:18.656Z,30
2017-07-10T12:43:18.642Z,33
2017-07-10T12:53:18.734Z,35
2017-07-10T13:03:18.664Z,32
2017-07-10T13:13:18.743Z,35
2017-07-10T13:23:18.705Z,30
2017-07-10T13:33:18.800Z,30
2017-07-10T13:43:18.699Z,32
2017-07-10T13:53:18.770Z,32
2017-07-10T14:03:18.773Z,37
2017-07-10T14:13:18.721Z,37
2017-07-10T14:23:18.734Z,36
2017-07-10T14:33:18.684Z,30
2017-07-10T14:43:19.171Z,30
2017-07-10T14:53:18.788Z,31
2017-07-10T15:03:26.859Z,28
2017-07-10T15:13:18.793Z,29
2017-07-10T15:23:18.735Z,29
2017-07-10T15:33:18.871Z,24
2017-07-10T15:43:18.812Z,25
2017-07-10T15:53:18.772Z,25
2017-07-10T16:03:18.703Z,24
2017-07-10T16:13:19.562Z,23
2017-07-10T16:23:18.764Z,26
2017-07-10T16:33:19.102Z,23
2017-07-10T16:43:18.835Z,23
2017-07-10T16:53:18.908Z,20
2017-07-10T17:03:19.692Z,18
2017-07-10T17:13:18.868Z,10
2017-07-10T17:23:18.803Z,10
2017-07-10T17:33:18.757Z,10
2017-07-10T17:43:19.158Z,10
2017-07-10T17:53:18.769Z,11
2017-07-10T18:03:18.817Z,11
2017-07-10T18:13:18.755Z,12
2017-07-10T18:23:19.940Z,12
2017-07-10T18:33:18.789Z,13
2017-07-10T18:43:18.718Z,14
2017-07-10T18:53:18.792Z,13
2017-07-10T19:03:18.790Z,14
2017-07-10T19:13:18.737Z,12
2017-07-10T19:23:18.784Z,13
2017-07-10T19:33:18.849Z,12
2017-07-10T19:43:18.851Z,11
2017-07-10T19:53:18.756Z,12
2017-07-10T20:03:18.865Z,13
2017-07-10T20:13:18.766Z,15
2017-07-10T20:23:18.752Z,17
2017-07-10T20:33:19.674Z,18
2017-07-10T20:43:18.761Z,19
2017-07-10T20:53:18.808Z,19
2017-07-10T21:03:19.181Z,20
2017-07-10T21:13:18.760Z,24
2017-07-10T21:23:18.811Z,26
2017-07-10T21:33:20.057Z,28
2017-07-10T21:43:18.817Z,30
2017-07-10T21:53:18.783Z,32
2017-07-10T22:03:18.877Z,26
2017-07-10T22:13:18.800Z,20
2017-07-10T22:23:22.804Z,21
2017-07-10T22:33:18.799Z,22
2017-07-10T22:43:18.789Z,21
2017-07-10T22:53:19.028Z,19
2017-07-10T23:03:18.878Z,16
2017-07-10T23:13:18.854Z,16
2017-07-10T23:23:18.924Z,14
2017-07-10T23:33:18.983Z,14
2017-07-10T23:43:18.838Z,16
2017-07-10T23:53:19.810Z,14
